Flight Track Log - Related Links

Times and Time Zones

All times are in EDT time to prevent confusion due to time zone crossing. See the N997MX flight status page for this flight to view local times or setup timezone preferences in your user account.


Time Position Orientation Groundspeed Altitude Reporting Facility
EDT Latitude Longitude Course Direction KTS MPH feet Rate Location/Type
Thu 05:56:40 PM 37.4397 -87.5131 292° West 234 269 4,500  Level Indianapolis Center
Thu 05:57:42 PM 37.4678 -87.6061 291° West 271 312 6,100 1,800 Climbing Indianapolis Center
Thu 05:59:20 PM 37.5206 -87.7769 291° West 284 327 9,300 1,650 Climbing Kansas City Center
Thu 06:00:22 PM 37.5508 -87.8717 292° West 287 330 10,500 1,161 Climbing Kansas City Center
Thu 06:01:00 PM 37.3591 -87.4079 292° West  Level FlightAware Approximate
Thu 06:01:24 PM 37.5819 -87.9694 292° West 294 338 11,700  Level Kansas City Center
Thu 06:02:00 PM 37.3895 -87.5010 292° West  Level FlightAware Approximate
Thu 06:02:26 PM 37.6139 -88.0697 292° West 301 346 12,800  Level Kansas City Center
Thu 06:03:28 PM 37.6447 -88.1683 292° West 303 349 14,000 1,161 Climbing Kansas City Center
Thu 06:04:30 PM 37.6761 -88.2681 292° West 304 350 15,200 1,113 Climbing Kansas City Center
Thu 06:05:32 PM 37.7089 -88.3681 293° West 305 351 16,300 1,016 Climbing Kansas City Center
Thu 06:06:34 PM 37.7386 -88.4653 291° West 303 349 17,300 1,016 Climbing Kansas City Center
Thu 06:07:36 PM 37.7733 -88.5806 291° West 295 339 18,400 1,016 Climbing Kansas City Center
Thu 06:08:38 PM 37.8022 -88.6761 291° West 292 336 19,400 919 Climbing Kansas City Center
Thu 06:09:40 PM 37.8289 -88.7567 293° West 291 335 20,300 774 Climbing Kansas City Center
Thu 06:10:42 PM 37.8625 -88.8672 291° West 283 326 21,000 581 Climbing Kansas City Center
Thu 06:11:44 PM 37.8911 -88.9639 291° West 289 333 21,500 484 Climbing Kansas City Center
Thu 06:12:46 PM 37.9219 -89.0700 290° West 299 344 22,000 240 Climbing Kansas City Center
Thu 06:13:49 PM 37.9544 -89.1806 290° West 311 358 22,000 -288 Level Kansas City Center
Thu 06:14:51 PM 37.9872 -89.2875 291° West 323 372 21,400 -1,645 Descending Kansas City Center
Thu 06:15:53 PM 38.0275 -89.4186 291° West 368 423 18,600 -2,565 Descending Kansas City Center
Thu 06:16:55 PM 38.0633 -89.5364 291° West 361 415 16,100 -2,419 Descending Kansas City Center
Thu 06:17:57 PM 38.0992 -89.6528 291° West 355 409 13,600 -1,935 Descending Kansas City Center
Thu 06:18:59 PM 38.1317 -89.7683 290° West 355 409 12,100 -774 Descending Kansas City Center
Thu 06:20:01 PM 38.1817 -89.8625 304° West 331 381 12,000 -339 Descending Kansas City Center
Thu 06:21:03 PM 38.2331 -89.9564 305° West 324 373 11,400 -919 Descending Kansas City Center
Thu 06:22:05 PM 38.2775 -90.0539 300° West 321 369 10,100 -1,403 Descending Kansas City Center
Thu 06:23:07 PM 38.3256 -90.1597 300° West 294 338 8,500 -1,403 Descending Kansas City Center
Thu 06:24:09 PM 38.3644 -90.2450 300° West 283 326 7,200 -1,258 Descending Kansas City Center
Thu 06:25:11 PM 38.4036 -90.3300 300° West 278 320 5,900 -1,161 Descending Kansas City Center
Thu 06:26:13 PM 38.4414 -90.4156 299° West 277 319 4,800 -878 Descending Kansas City Center
Thu 06:27:14 PM 38.4803 -90.4981 301° West 273 314 4,100 -683 Descending Kansas City Center
Thu 06:28:16 PM 38.5261 -90.5725 308° West 268 308 3,400 -823 Descending Kansas City Center
Thu 06:29:18 PM 38.5769 -90.6333 317° Northwest 260 299 2,400 -581 Descending Kansas City Center
Thu 06:30:20 PM 38.5989 -90.6939 295° West 209 241 2,200 -532 Descending Kansas City Center
Thu 06:31:22 PM 38.6442 -90.7058 348° North 160 184 1,300 -774 Descending Kansas City Center
Thu 06:32:24 PM 38.6575 -90.6614 69° East 143 165 600 -677 Descending Kansas City Center

Login

Don't have an account? Register now (free) for customized features, flight alerts, and more!